Buncombe, Illinois
Current Conditions -  °F | °C
As of 4:35 AM on Monday 26 Jan 2015 (Local Time) from KMWA Reporting Station
Broken Clouds Broken Clouds  
Wind Chill: 25°   Ceiling: 1700
Heat Index: 30°   Visibility: 10mi
Dew Point: 25°   Wind: 5mph
Humidity: 80%   Direction: 300°WNW
Pressure: 30.02"   Gusts: NA
Location:  37.47°N, 88.98°W
Report Text: KMWA 261035Z AUTO 30004KT 10SM BKN017 M01/M04 A3002 RMK AO2
Loading
Personal Weather Stations






























Interactive Weather Map New forecast layout! Learn more

10-Day Weather Forecast

Advertisements
Track Severe Weather on mobile